Time;durP1;ratioP1;P1;durP2;ratioP2;P2;SDS_P1;SDS_P2;PMS_P1;PMS_P2;Temp;Humidity;BMP_temperature;BMP_pressure;BME280_temperature;BME280_humidity;BME280_pressure;Samples;Min_cycle;Max_cycle;Signal;HPM_P1;HPM_P2
2022/09/15 00:01:38;;;;;;;5.22;2.00;;;15.40;99.90;;;;;;5024538;28;20204;-62
2022/09/15 00:04:04;;;;;;;5.88;2.42;;;15.50;99.90;;;;;;4967174;23;20038;-62
2022/09/15 00:06:30;;;;;;;9.13;2.45;;;15.50;99.90;;;;;;4976737;28;20127;-62
2022/09/15 00:08:58;;;;;;;6.68;1.58;;;15.60;99.90;;;;;;4959570;28;20519;-62
2022/09/15 00:11:33;;;;;;;6.47;2.17;;;15.60;99.90;;;;;;4975498;28;20495;-62
2022/09/15 00:14:02;;;;;;;7.45;1.83;;;15.60;99.90;;;;;;4977080;28;20050;-62
2022/09/15 00:16:30;;;;;;;14.82;2.58;;;15.60;99.90;;;;;;4978261;28;20053;-62
2022/09/15 00:18:57;;;;;;;4.03;1.25;;;15.60;99.90;;;;;;4974626;28;20054;-62
2022/09/15 00:21:27;;;;;;;4.20;1.40;;;15.60;99.90;;;;;;4994903;28;20041;-62
2022/09/15 00:23:53;;;;;;;3.55;1.33;;;15.60;99.90;;;;;;4988099;28;20038;-62
2022/09/15 00:26:22;;;;;;;10.32;1.77;;;15.60;99.90;;;;;;4991649;28;20053;-62
2022/09/15 00:28:49;;;;;;;9.55;1.52;;;15.60;99.90;;;;;;4963065;28;20165;-62
2022/09/15 00:31:17;;;;;;;4.70;1.50;;;15.60;99.90;;;;;;4977111;28;20088;-62
2022/09/15 00:33:46;;;;;;;3.55;1.27;;;15.60;99.90;;;;;;4959429;28;20050;-62
2022/09/15 00:36:13;;;;;;;4.82;1.20;;;15.60;99.90;;;;;;4976601;28;20037;-62
2022/09/15 00:38:39;;;;;;;4.15;0.98;;;15.60;99.90;;;;;;4959346;28;20053;-62
2022/09/15 00:41:07;;;;;;;4.95;1.83;;;15.60;99.90;;;;;;4977798;28;20049;-62
2022/09/15 00:43:55;;;;;;;5.10;1.33;;;15.60;99.90;;;;;;4958685;28;20038;-61
2022/09/15 00:46:26;;;;;;;3.78;0.95;;;15.60;99.90;;;;;;4967219;28;20081;-62
2022/09/15 00:49:03;;;;;;;5.78;0.88;;;15.60;99.90;;;;;;4978493;28;20144;-62
2022/09/15 00:52:06;;;;;;;5.63;1.08;;;15.60;99.90;;;;;;4976788;28;20104;-62
2022/09/15 00:54:40;;;;;;;3.13;0.75;;;15.60;99.90;;;;;;4955896;28;20176;-62
2022/09/15 00:57:16;;;;;;;8.68;1.15;;;15.60;99.90;;;;;;4996949;28;20073;-62
2022/09/15 00:59:42;;;;;;;7.20;1.50;;;15.60;99.90;;;;;;4995795;28;20049;-62
2022/09/15 01:02:19;;;;;;;6.55;1.20;;;15.60;99.90;;;;;;4982184;28;20077;-62
2022/09/15 01:04:45;;;;;;;3.55;1.20;;;15.60;99.90;;;;;;4997086;28;20045;-62
2022/09/15 01:07:17;;;;;;;8.93;1.38;;;15.60;99.90;;;;;;4996407;28;20420;-62
2022/09/15 01:09:54;;;;;;;7.13;1.88;;;15.60;99.90;;;;;;4980073;28;20283;-62
2022/09/15 01:12:21;;;;;;;4.68;1.35;;;15.60;99.90;;;;;;5005355;28;20054;-62
2022/09/15 01:14:47;;;;;;;6.70;1.65;;;15.70;99.90;;;;;;4993754;28;20042;-62
2022/09/15 01:17:19;;;;;;;13.90;1.80;;;15.70;99.90;;;;;;5003922;28;20044;-62
2022/09/15 01:19:58;;;;;;;4.75;1.10;;;15.70;99.90;;;;;;4994366;28;20045;-63
2022/09/15 01:22:41;;;;;;;4.18;1.02;;;15.70;99.90;;;;;;5002794;28;20153;-62
2022/09/15 01:25:36;;;;;;;9.67;2.07;;;15.70;99.90;;;;;;5000991;28;20265;-63
2022/09/15 01:28:29;;;;;;;10.00;1.40;;;15.70;99.90;;;;;;4973635;28;20620;-62
2022/09/15 01:31:11;;;;;;;5.70;1.42;;;15.70;99.90;;;;;;4978304;28;20519;-62
2022/09/15 01:33:48;;;;;;;9.15;1.67;;;15.70;99.90;;;;;;4977433;28;20652;-63
2022/09/15 01:36:24;;;;;;;7.88;1.45;;;15.70;99.90;;;;;;4975827;28;20133;-63
2022/09/15 01:39:02;;;;;;;5.70;1.50;;;15.70;99.90;;;;;;4957656;28;20045;-63
2022/09/15 01:41:39;;;;;;;5.68;1.50;;;15.70;99.90;;;;;;4973673;28;20144;-62
2022/09/15 01:44:27;;;;;;;7.43;1.42;;;15.70;99.90;;;;;;4978156;28;21804;-63
2022/09/15 01:46:57;;;;;;;12.18;1.60;;;15.60;99.90;;;;;;4971913;28;20053;-62
2022/09/15 01:49:28;;;;;;;10.27;1.60;;;15.60;99.90;;;;;;4957012;28;20038;-62
2022/09/15 01:51:54;;;;;;;6.45;1.58;;;15.60;99.90;;;;;;4968302;28;20088;-63
2022/09/15 01:54:34;;;;;;;6.75;1.50;;;15.60;99.90;;;;;;4976338;28;20037;-62
2022/09/15 01:57:01;;;;;;;5.82;1.25;;;15.60;99.90;;;;;;4957319;28;20100;-62
2022/09/15 01:59:27;;;;;;;5.70;1.42;;;15.60;99.90;;;;;;4955135;28;20136;-62
2022/09/15 02:02:06;;;;;;;4.65;1.27;;;15.60;99.90;;;;;;4973500;28;20050;-63
2022/09/15 02:04:37;;;;;;;6.95;1.60;;;15.60;99.90;;;;;;4984192;28;20033;-62
2022/09/15 02:07:10;;;;;;;10.73;1.92;;;15.60;99.90;;;;;;4979343;28;20038;-62
2022/09/15 02:09:53;;;;;;;7.10;1.33;;;15.60;99.90;;;;;;4959198;28;20320;-62
2022/09/15 02:13:02;;;;;;;8.00;1.30;;;15.50;99.90;;;;;;4972108;28;20759;-62
2022/09/15 02:15:41;;;;;;;7.30;1.42;;;15.60;99.90;;;;;;4970096;28;20058;-62
2022/09/15 02:18:09;;;;;;;4.82;1.10;;;15.60;99.90;;;;;;4976337;28;20104;-62
2022/09/15 02:20:52;;;;;;;4.25;1.15;;;15.60;99.90;;;;;;4981074;28;20042;-62
2022/09/15 02:23:27;;;;;;;3.53;1.20;;;15.60;99.90;;;;;;4974016;28;20282;-62
2022/09/15 02:26:03;;;;;;;5.93;1.38;;;15.60;99.90;;;;;;4975321;28;20351;-63
2022/09/15 02:28:32;;;;;;;6.00;0.80;;;15.60;99.90;;;;;;4974816;28;20037;-62
2022/09/15 02:30:59;;;;;;;6.93;1.20;;;15.50;99.90;;;;;;4978463;28;20049;-63
2022/09/15 02:33:30;;;;;;;6.47;1.08;;;15.50;99.90;;;;;;4979137;28;20046;-62
2022/09/15 02:35:56;;;;;;;7.20;1.05;;;15.50;99.90;;;;;;4974824;28;20173;-63
2022/09/15 02:38:22;;;;;;;4.65;1.15;;;15.50;99.90;;;;;;4976333;28;20034;-62
2022/09/15 02:40:48;;;;;;;4.13;1.10;;;15.50;99.90;;;;;;4981251;28;20065;-63
2022/09/15 02:43:16;;;;;;;5.30;1.27;;;15.50;99.90;;;;;;4978397;28;20068;-62
2022/09/15 02:45:42;;;;;;;7.60;1.80;;;15.60;99.90;;;;;;4974537;28;20046;-62
2022/09/15 02:48:08;;;;;;;8.15;1.20;;;15.50;99.90;;;;;;4975137;28;20046;-62
2022/09/15 02:50:35;;;;;;;5.35;1.08;;;15.60;99.90;;;;;;4957706;28;20607;-62
2022/09/15 02:53:01;;;;;;;5.20;1.25;;;15.50;99.90;;;;;;4977267;28;20045;-62
2022/09/15 02:55:27;;;;;;;5.93;1.33;;;15.60;99.90;;;;;;4961773;28;20089;-62
2022/09/15 02:57:57;;;;;;;8.77;1.58;;;15.50;99.90;;;;;;4975441;28;20046;-62
2022/09/15 03:00:24;;;;;;;8.00;1.33;;;15.50;99.90;;;;;;4976895;28;20054;-62
2022/09/15 03:02:52;;;;;;;5.68;1.23;;;15.50;99.90;;;;;;4978373;28;20160;-62
2022/09/15 03:05:21;;;;;;;4.93;1.45;;;15.50;99.90;;;;;;4976404;28;20089;-62
2022/09/15 03:07:46;;;;;;;8.30;1.35;;;15.50;99.90;;;;;;4983499;28;20073;-63
2022/09/15 03:10:13;;;;;;;6.43;1.67;;;15.50;99.90;;;;;;4979902;28;20125;-62
2022/09/15 03:12:39;;;;;;;6.65;1.60;;;15.50;99.90;;;;;;4980664;28;20485;-62
2022/09/15 03:15:07;;;;;;;6.97;1.13;;;15.50;99.90;;;;;;4984050;28;20056;-63
2022/09/15 03:17:35;;;;;;;4.20;1.00;;;15.50;99.90;;;;;;5000054;28;20042;-62
2022/09/15 03:20:01;;;;;;;5.75;1.15;;;15.50;99.90;;;;;;5000297;28;20054;-63
2022/09/15 03:22:27;;;;;;;5.28;0.93;;;15.50;99.30;;;;;;5001205;28;20041;-62
2022/09/15 03:24:53;;;;;;;4.47;1.30;;;15.50;98.90;;;;;;5000543;28;20045;-62
2022/09/15 03:27:19;;;;;;;6.55;1.20;;;15.50;98.20;;;;;;5005607;28;20485;-62
2022/09/15 03:29:44;;;;;;;10.70;1.80;;;15.50;98.00;;;;;;4986029;28;20050;-62
2022/09/15 03:32:10;;;;;;;7.47;1.38;;;15.50;97.10;;;;;;4972232;28;20045;-62
2022/09/15 03:34:36;;;;;;;7.00;1.10;;;15.50;97.60;;;;;;4996198;28;20049;-62
2022/09/15 03:37:01;;;;;;;7.75;1.50;;;15.40;97.00;;;;;;4999614;28;20765;-62
2022/09/15 03:39:27;;;;;;;3.03;0.77;;;15.40;97.20;;;;;;4984093;28;20030;-62
2022/09/15 03:41:53;;;;;;;6.90;1.20;;;15.40;97.10;;;;;;5005074;28;20058;-62
2022/09/15 03:44:19;;;;;;;6.78;1.20;;;15.40;97.20;;;;;;4983516;28;20042;-62
2022/09/15 03:46:44;;;;;;;9.38;1.67;;;15.30;97.20;;;;;;4985954;28;20042;-62
2022/09/15 03:49:10;;;;;;;9.63;1.40;;;15.30;97.40;;;;;;5002237;28;20492;-62
2022/09/15 03:51:36;;;;;;;8.15;2.25;;;15.30;97.40;;;;;;4995681;28;20052;-62
2022/09/15 03:54:02;;;;;;;9.23;1.33;;;15.30;97.40;;;;;;4987142;28;20045;-62
2022/09/15 03:56:30;;;;;;;5.90;1.10;;;15.30;97.50;;;;;;4977302;28;20034;-62
2022/09/15 03:58:56;;;;;;;5.72;1.50;;;15.30;97.50;;;;;;4958019;28;20434;-62
2022/09/15 04:01:22;;;;;;;8.55;1.65;;;15.30;97.80;;;;;;4957844;28;20078;-62
2022/09/15 04:03:49;;;;;;;7.40;1.33;;;15.30;97.80;;;;;;4974429;28;20038;-62
2022/09/15 04:06:17;;;;;;;7.80;1.52;;;15.30;98.10;;;;;;4980110;28;20461;-63
2022/09/15 04:08:42;;;;;;;6.90;1.50;;;15.30;98.40;;;;;;4975901;28;20515;-62
2022/09/15 04:11:10;;;;;;;7.97;1.20;;;15.20;98.70;;;;;;4976627;28;20046;-62
2022/09/15 04:13:37;;;;;;;9.27;1.50;;;15.20;99.00;;;;;;4975133;28;20079;-62
2022/09/15 04:16:06;;;;;;;11.50;1.83;;;15.20;99.20;;;;;;4953422;28;20092;-62
2022/09/15 04:18:33;;;;;;;10.05;3.15;;;15.20;99.40;;;;;;4957991;28;20069;-62
2022/09/15 04:20:59;;;;;;;7.40;2.50;;;15.20;99.50;;;;;;4975995;28;20041;-62
2022/09/15 04:23:25;;;;;;;6.45;1.27;;;15.20;99.60;;;;;;4981068;28;20128;-64
2022/09/15 04:25:55;;;;;;;7.50;1.52;;;15.20;99.60;;;;;;4979037;28;20392;-62
2022/09/15 04:28:22;;;;;;;10.05;1.70;;;15.20;99.70;;;;;;4977488;28;20350;-62
2022/09/15 04:30:48;;;;;;;6.10;1.45;;;15.30;99.80;;;;;;4963570;28;21079;-62
2022/09/15 04:33:13;;;;;;;9.00;2.42;;;15.30;99.80;;;;;;4957626;28;20056;-62
2022/09/15 04:35:39;;;;;;;7.18;1.42;;;15.30;99.90;;;;;;4961518;28;20034;-62
2022/09/15 04:38:05;;;;;;;6.10;1.88;;;15.30;99.90;;;;;;4980054;28;20046;-63
2022/09/15 04:40:31;;;;;;;5.78;1.23;;;15.30;99.90;;;;;;4981224;28;20496;-63
2022/09/15 04:42:56;;;;;;;7.20;1.50;;;15.20;99.90;;;;;;4958585;28;20042;-62
2022/09/15 04:45:22;;;;;;;4.40;1.10;;;15.20;99.90;;;;;;4959405;28;20053;-62
2022/09/15 04:47:50;;;;;;;5.20;1.23;;;15.20;99.90;;;;;;4961964;28;20048;-62
2022/09/15 04:50:16;;;;;;;4.15;1.40;;;15.20;99.90;;;;;;4975789;28;20475;-63
2022/09/15 04:52:41;;;;;;;8.18;1.30;;;15.20;99.90;;;;;;4975497;28;20045;-63
2022/09/15 04:55:08;;;;;;;6.65;1.23;;;15.10;99.90;;;;;;4959531;28;20775;-62
2022/09/15 04:57:33;;;;;;;7.75;1.50;;;15.20;99.90;;;;;;4975056;28;20127;-63
2022/09/15 04:59:59;;;;;;;8.18;1.27;;;15.20;99.90;;;;;;4978738;28;20042;-62
2022/09/15 05:02:25;;;;;;;8.10;1.40;;;15.20;99.90;;;;;;4974368;28;20927;-62
2022/09/15 05:04:51;;;;;;;9.52;1.95;;;15.10;99.90;;;;;;4957999;28;20045;-63
2022/09/15 05:07:17;;;;;;;7.22;1.35;;;15.10;99.90;;;;;;4974520;28;22270;-62
2022/09/15 05:09:43;;;;;;;6.63;1.40;;;15.10;99.90;;;;;;4960643;28;20560;-62
2022/09/15 05:12:09;;;;;;;9.77;1.60;;;15.10;99.90;;;;;;4973953;28;20045;-62
2022/09/15 05:14:34;;;;;;;7.13;1.20;;;15.10;99.90;;;;;;4980851;28;20485;-62
2022/09/15 05:17:00;;;;;;;6.00;2.10;;;15.10;99.90;;;;;;4962602;28;20132;-63
2022/09/15 05:19:26;;;;;;;5.60;1.50;;;15.10;99.90;;;;;;4977049;28;20048;-62
2022/09/15 05:21:51;;;;;;;4.07;1.00;;;15.10;99.90;;;;;;4960141;28;20137;-62
2022/09/15 05:24:17;;;;;;;9.85;1.70;;;15.10;99.90;;;;;;4980573;28;20053;-62
2022/09/15 05:26:43;;;;;;;7.88;1.48;;;15.10;99.90;;;;;;4960183;28;20042;-62
2022/09/15 05:29:08;;;;;;;7.28;1.40;;;15.10;99.90;;;;;;4960785;28;20046;-62
2022/09/15 05:31:34;;;;;;;8.48;1.77;;;15.20;99.90;;;;;;4972402;28;20053;-62
2022/09/15 05:34:02;;;;;;;8.63;1.92;;;15.10;99.90;;;;;;4975538;28;20049;-62
2022/09/15 05:36:28;;;;;;;5.72;1.30;;;15.10;99.90;;;;;;4973951;28;20042;-62
2022/09/15 05:38:55;;;;;;;6.00;1.92;;;15.10;99.90;;;;;;5000697;28;20030;-62
2022/09/15 05:41:22;;;;;;;5.13;1.42;;;15.10;99.90;;;;;;4984729;28;20092;-62
2022/09/15 05:43:49;;;;;;;11.45;2.00;;;15.10;99.90;;;;;;5000792;28;20046;-62
2022/09/15 05:46:17;;;;;;;5.45;1.17;;;15.20;99.80;;;;;;5001785;28;20180;-62
2022/09/15 05:48:43;;;;;;;5.55;1.15;;;15.20;99.80;;;;;;4995845;28;20512;-62
2022/09/15 05:51:13;;;;;;;6.65;1.83;;;15.20;99.90;;;;;;4999774;28;20034;-62
2022/09/15 05:53:39;;;;;;;10.85;1.73;;;15.20;99.90;;;;;;4981004;28;20041;-62
2022/09/15 05:56:09;;;;;;;9.35;1.45;;;15.20;99.90;;;;;;4984129;28;20309;-62
2022/09/15 05:58:34;;;;;;;7.00;1.40;;;15.20;99.90;;;;;;4994780;28;20045;-62
2022/09/15 06:01:10;;;;;;;6.78;1.27;;;15.20;99.90;;;;;;4973626;28;20047;-62
2022/09/15 06:03:36;;;;;;;5.30;1.15;;;15.30;99.90;;;;;;5008586;23;20630;-65
2022/09/15 06:06:03;;;;;;;9.30;1.50;;;15.30;99.90;;;;;;4980124;28;20054;-64
2022/09/15 06:08:34;;;;;;;5.50;1.30;;;15.30;99.90;;;;;;4968325;28;20600;-64
2022/09/15 06:11:07;;;;;;;10.25;1.67;;;15.30;99.90;;;;;;4970010;28;20109;-64
2022/09/15 06:13:33;;;;;;;4.80;1.35;;;15.30;99.90;;;;;;4969590;28;20525;-64
2022/09/15 06:16:03;;;;;;;5.65;1.50;;;15.40;99.90;;;;;;4976456;28;20180;-64
2022/09/15 06:18:29;;;;;;;6.13;1.10;;;15.30;99.90;;;;;;4969620;28;20128;-64
2022/09/15 06:20:55;;;;;;;6.57;1.63;;;15.30;99.90;;;;;;4967857;28;20055;-64
2022/09/15 06:23:21;;;;;;;6.47;1.25;;;15.30;99.90;;;;;;4963706;28;20043;-65
2022/09/15 06:25:47;;;;;;;5.78;1.08;;;15.20;99.90;;;;;;4967777;28;20069;-64
2022/09/15 06:28:12;;;;;;;10.05;1.60;;;15.10;99.90;;;;;;4972754;28;20259;-64
2022/09/15 06:30:39;;;;;;;5.15;1.20;;;15.10;99.90;;;;;;4968311;28;20050;-64
2022/09/15 06:33:04;;;;;;;5.00;1.30;;;15.00;99.90;;;;;;4973935;28;20042;-64
2022/09/15 06:35:30;;;;;;;6.88;1.90;;;15.00;99.90;;;;;;4965003;28;20057;-64
2022/09/15 06:37:56;;;;;;;7.72;1.25;;;15.00;99.90;;;;;;4968123;28;20080;-64
2022/09/15 06:40:22;;;;;;;6.30;1.50;;;15.00;99.90;;;;;;4979706;28;20041;-64
2022/09/15 06:42:48;;;;;;;5.25;1.35;;;15.00;99.90;;;;;;4968573;28;20049;-65
2022/09/15 06:45:13;;;;;;;5.63;1.40;;;15.00;99.90;;;;;;4967779;28;20700;-63
2022/09/15 06:47:39;;;;;;;5.22;1.00;;;14.90;99.90;;;;;;4968769;28;20156;-63
2022/09/15 06:50:05;;;;;;;6.63;1.58;;;14.80;99.90;;;;;;4977712;28;20042;-64
2022/09/15 06:52:31;;;;;;;6.30;1.17;;;14.80;99.90;;;;;;4968288;28;20046;-64
2022/09/15 06:54:56;;;;;;;3.60;1.13;;;14.90;99.90;;;;;;4970255;28;20204;-64
2022/09/15 06:57:22;;;;;;;5.07;0.90;;;14.90;99.90;;;;;;4975385;28;20053;-64
2022/09/15 06:59:48;;;;;;;5.35;0.90;;;14.90;99.90;;;;;;4967383;28;22277;-64
2022/09/15 07:02:13;;;;;;;3.03;1.00;;;14.90;99.90;;;;;;4963508;28;20531;-64
2022/09/15 07:04:39;;;;;;;4.05;1.00;;;14.90;99.90;;;;;;4970810;28;20042;-64
2022/09/15 07:07:05;;;;;;;3.95;0.85;;;14.90;99.90;;;;;;4971948;28;20054;-64
2022/09/15 07:09:31;;;;;;;4.03;0.82;;;15.00;99.90;;;;;;4971191;28;20661;-63
2022/09/15 07:11:56;;;;;;;3.22;0.90;;;15.00;99.90;;;;;;4969440;28;20046;-64
2022/09/15 07:14:22;;;;;;;6.72;1.10;;;15.00;99.90;;;;;;4971050;28;20049;-64
2022/09/15 07:16:48;;;;;;;4.82;0.80;;;15.00;99.90;;;;;;4951316;28;20092;-64
2022/09/15 07:19:14;;;;;;;3.55;0.80;;;15.10;99.90;;;;;;4956936;28;20042;-63
2022/09/15 07:21:39;;;;;;;5.20;1.00;;;15.10;99.90;;;;;;4966341;28;20046;-63
2022/09/15 07:24:06;;;;;;;6.50;1.17;;;15.10;99.90;;;;;;4973767;28;20046;-64
2022/09/15 07:26:32;;;;;;;6.32;1.02;;;15.10;99.90;;;;;;4990952;28;20314;-64
2022/09/15 07:29:01;;;;;;;5.00;1.02;;;15.20;99.90;;;;;;4969142;28;21248;-64
2022/09/15 07:31:29;;;;;;;6.38;0.85;;;15.30;99.90;;;;;;4984159;28;20046;-67
2022/09/15 07:33:56;;;;;;;4.43;0.90;;;15.40;99.90;;;;;;4967311;28;20104;-64
2022/09/15 07:36:21;;;;;;;4.85;1.27;;;15.40;99.90;;;;;;4955866;28;20489;-66
2022/09/15 07:38:48;;;;;;;5.18;1.40;;;15.40;99.90;;;;;;4974607;28;20034;-66
2022/09/15 07:41:20;;;;;;;4.03;1.15;;;15.40;99.90;;;;;;4979803;28;20461;-65
2022/09/15 07:43:53;;;;;;;3.17;1.00;;;15.40;99.90;;;;;;4984519;28;20066;-65
2022/09/15 07:46:20;;;;;;;4.50;0.85;;;15.50;99.90;;;;;;4989741;28;20044;-65
2022/09/15 07:48:48;;;;;;;5.28;1.00;;;15.50;99.90;;;;;;4988354;28;20046;-63
2022/09/15 07:51:15;;;;;;;7.70;1.23;;;15.60;99.90;;;;;;4986166;28;22118;-63
2022/09/15 07:53:42;;;;;;;9.70;1.30;;;15.70;99.90;;;;;;4982397;28;20053;-64
2022/09/15 07:56:07;;;;;;;8.38;1.38;;;15.90;99.90;;;;;;5001243;28;20045;-64
2022/09/15 07:58:33;;;;;;;6.78;1.30;;;16.10;99.90;;;;;;4997628;28;20042;-64
2022/09/15 08:01:07;;;;;;;7.80;1.55;;;16.30;99.90;;;;;;4999170;28;20431;-62
2022/09/15 08:03:33;;;;;;;7.70;1.38;;;16.60;99.90;;;;;;4994194;28;20061;-63
2022/09/15 08:06:00;;;;;;;8.18;1.33;;;16.80;99.90;;;;;;5000207;28;20033;-62
2022/09/15 08:08:27;;;;;;;6.78;1.45;;;16.90;99.90;;;;;;4999094;28;20539;-64
2022/09/15 08:10:53;;;;;;;7.03;1.13;;;16.90;99.90;;;;;;5006047;28;20804;-63
2022/09/15 08:13:20;;;;;;;7.25;1.27;;;16.80;99.90;;;;;;4999843;28;20041;-64
2022/09/15 08:15:46;;;;;;;8.02;1.95;;;16.60;99.90;;;;;;5003780;28;20508;-63
2022/09/15 08:18:12;;;;;;;9.93;1.80;;;16.70;99.90;;;;;;5003812;28;20046;-68
2022/09/15 08:20:39;;;;;;;8.88;1.38;;;16.60;99.90;;;;;;5003034;28;20509;-63
2022/09/15 08:23:05;;;;;;;5.68;1.40;;;16.50;99.50;;;;;;4996668;28;20061;-63
2022/09/15 08:25:31;;;;;;;8.13;1.50;;;16.40;99.60;;;;;;4979713;28;20426;-63
2022/09/15 08:27:58;;;;;;;5.88;1.40;;;16.40;99.40;;;;;;4979365;28;20129;-64
2022/09/15 08:30:25;;;;;;;6.40;1.23;;;16.40;99.70;;;;;;4963794;28;20046;-64
2022/09/15 08:32:51;;;;;;;7.50;1.55;;;16.40;99.40;;;;;;4970197;28;21554;-63
2022/09/15 08:35:17;;;;;;;7.75;1.50;;;16.50;99.50;;;;;;4978606;28;20062;-63
2022/09/15 08:37:43;;;;;;;10.95;1.40;;;16.50;99.90;;;;;;4973836;28;20057;-64
2022/09/15 08:40:31;;;;;;;9.38;1.20;;;16.60;99.70;;;;;;4983625;28;20038;-63
2022/09/15 08:43:02;;;;;;;8.02;1.20;;;16.60;99.50;;;;;;4976265;28;20046;-63
2022/09/15 08:45:34;;;;;;;7.65;1.50;;;16.70;99.30;;;;;;4975492;28;20629;-64
2022/09/15 08:48:06;;;;;;;4.20;0.95;;;16.60;99.30;;;;;;4971559;28;20745;-63
2022/09/15 08:50:40;;;;;;;7.25;1.50;;;16.60;99.40;;;;;;4981129;28;20397;-63
2022/09/15 08:53:17;;;;;;;4.53;1.27;;;16.80;99.50;;;;;;4976012;28;20053;-63
2022/09/15 08:56:03;;;;;;;6.72;1.08;;;16.80;99.30;;;;;;4976529;28;20476;-63
2022/09/15 08:58:33;;;;;;;3.45;0.88;;;17.00;99.00;;;;;;4955490;28;20069;-64
2022/09/15 09:01:19;;;;;;;9.50;1.10;;;17.10;98.80;;;;;;4973190;28;20058;-63
2022/09/15 09:04:10;;;;;;;4.60;0.93;;;17.10;98.50;;;;;;4972448;28;20128;-63
2022/09/15 09:07:00;;;;;;;5.95;1.25;;;17.20;98.20;;;;;;4976510;28;20686;-64
2022/09/15 09:09:42;;;;;;;7.35;1.20;;;17.10;97.90;;;;;;4968092;28;20053;-63
2022/09/15 09:12:34;;;;;;;3.28;1.17;;;17.20;97.90;;;;;;4988058;28;20053;-64
2022/09/15 09:15:23;;;;;;;7.13;1.15;;;17.20;98.20;;;;;;4972695;28;20072;-63
2022/09/15 09:18:10;;;;;;;6.68;1.42;;;17.30;98.30;;;;;;4973199;28;20046;-63
2022/09/15 09:21:14;;;;;;;7.63;1.08;;;17.50;98.10;;;;;;4973755;28;20078;-63
2022/09/15 09:23:46;;;;;;;9.80;1.93;;;17.60;98.30;;;;;;4978353;28;20038;-64
2022/09/15 09:26:13;;;;;;;5.93;1.00;;;17.70;98.40;;;;;;4973148;28;20131;-63
2022/09/15 09:29:01;;;;;;;4.20;1.10;;;17.70;98.20;;;;;;4976603;28;20653;-63
2022/09/15 09:31:28;;;;;;;3.35;0.95;;;17.60;98.00;;;;;;4980669;28;20054;-63
2022/09/15 09:34:28;;;;;;;7.70;1.77;;;17.40;98.60;;;;;;4973030;28;20053;-63
2022/09/15 09:36:59;;;;;;;4.95;1.40;;;17.20;98.80;;;;;;4972988;28;20049;-63
2022/09/15 09:39:27;;;;;;;7.30;1.77;;;17.10;99.30;;;;;;4977484;28;20042;-63
2022/09/15 09:41:53;;;;;;;5.57;1.20;;;17.10;99.70;;;;;;4972332;28;20046;-63
2022/09/15 09:44:20;;;;;;;6.85;1.58;;;17.00;99.20;;;;;;4973537;28;20121;-63
2022/09/15 09:46:46;;;;;;;5.47;1.42;;;16.90;99.50;;;;;;4972478;28;22469;-64
2022/09/15 09:49:33;;;;;;;6.43;1.80;;;17.00;99.60;;;;;;4972537;28;20053;-64
2022/09/15 09:52:02;;;;;;;6.15;1.40;;;17.30;99.70;;;;;;4971915;28;20041;-63
2022/09/15 09:54:30;;;;;;;8.10;2.25;;;17.70;99.10;;;;;;4982856;28;20077;-62
2022/09/15 09:57:16;;;;;;;6.53;1.30;;;17.90;98.10;;;;;;4971514;28;20041;-63
2022/09/15 09:59:47;;;;;;;4.32;1.30;;;18.00;97.60;;;;;;4972597;28;20065;-63
2022/09/15 10:02:18;;;;;;;9.45;1.45;;;17.90;98.50;;;;;;4973253;28;20046;-63
2022/09/15 10:05:14;;;;;;;8.13;1.63;;;17.70;99.00;;;;;;4973470;28;20132;-63
2022/09/15 10:07:44;;;;;;;8.07;1.58;;;17.60;99.50;;;;;;4970013;28;20049;-64
2022/09/15 10:10:20;;;;;;;7.10;1.70;;;17.40;99.80;;;;;;4989997;28;20081;-63
2022/09/15 10:12:47;;;;;;;10.02;1.67;;;17.10;99.90;;;;;;5001841;28;20121;-64
2022/09/15 10:15:23;;;;;;;7.18;2.05;;;17.00;99.90;;;;;;4998492;28;20077;-62
2022/09/15 10:17:50;;;;;;;3.47;1.02;;;17.00;99.90;;;;;;4999863;28;20030;-63
2022/09/15 10:20:36;;;;;;;6.32;1.30;;;17.00;99.90;;;;;;5007669;28;20069;-63
2022/09/15 10:23:23;;;;;;;12.35;1.60;;;17.10;99.90;;;;;;5004881;28;20061;-63
2022/09/15 10:25:50;;;;;;;6.00;1.20;;;17.20;99.90;;;;;;4983197;28;20087;-63
2022/09/15 10:28:24;;;;;;;8.93;1.50;;;17.20;99.90;;;;;;4998383;28;20034;-63
2022/09/15 10:31:09;;;;;;;5.90;1.10;;;17.30;99.90;;;;;;5002931;28;20042;-63
2022/09/15 10:33:36;;;;;;;6.90;1.17;;;17.30;99.80;;;;;;4995763;28;20377;-64
2022/09/15 10:36:11;;;;;;;8.35;1.50;;;17.30;99.80;;;;;;5001871;28;20043;-64
2022/09/15 10:38:41;;;;;;;6.60;1.23;;;17.40;99.80;;;;;;5003928;28;20053;-63
2022/09/15 10:41:25;;;;;;;4.72;1.20;;;17.50;99.90;;;;;;4976213;28;20121;-63
2022/09/15 10:44:24;;;;;;;2.83;0.73;;;17.50;98.70;;;;;;4969932;28;20123;-63
2022/09/15 10:46:59;;;;;;;4.78;1.02;;;17.30;96.60;;;;;;4976502;28;20054;-64
2022/09/15 10:49:58;;;;;;;3.13;0.75;;;17.20;96.50;;;;;;4973524;28;20037;-64
2022/09/15 10:52:35;;;;;;;1.52;0.50;;;17.30;95.80;;;;;;4975204;28;20060;-63
2022/09/15 10:55:27;;;;;;;3.47;1.05;;;17.40;96.20;;;;;;4974167;28;20123;-64
2022/09/15 10:58:11;;;;;;;3.75;0.75;;;17.50;95.60;;;;;;4957157;28;20065;-64
2022/09/15 11:00:44;;;;;;;;;;;17.60;95.90;;;;;;4974211;28;20740;-64
2022/09/15 11:03:35;;;;;;;4.47;0.93;;;17.90;95.20;;;;;;4969761;28;20028;-63
2022/09/15 11:06:25;;;;;;;2.08;0.60;;;18.10;94.40;;;;;;4972543;28;20058;-65
2022/09/15 11:09:22;;;;;;;2.58;0.77;;;18.10;93.30;;;;;;4971167;28;20070;-63
2022/09/15 11:11:55;;;;;;;2.70;0.75;;;18.20;93.50;;;;;;4974266;28;20048;-63
2022/09/15 11:14:57;;;;;;;2.38;0.95;;;18.10;92.50;;;;;;4973538;28;20104;-63
2022/09/15 11:17:30;;;;;;;0.82;0.60;;;18.10;92.80;;;;;;4968822;28;20087;-63
2022/09/15 11:20:25;;;;;;;2.53;0.70;;;18.10;93.00;;;;;;4977083;28;20041;-64
2022/09/15 11:22:58;;;;;;;3.40;1.00;;;18.40;93.40;;;;;;4975206;28;20045;-64
2022/09/15 11:25:29;;;;;;;4.22;0.98;;;18.50;93.50;;;;;;4970414;28;22678;-64
2022/09/15 11:28:00;;;;;;;1.30;0.70;;;18.60;93.20;;;;;;4982979;28;20044;-64
2022/09/15 11:30:40;;;;;;;4.55;1.08;;;18.40;93.80;;;;;;4983592;28;20037;-64
2022/09/15 11:33:28;;;;;;;4.28;1.10;;;18.80;93.40;;;;;;4977902;28;20374;-64
2022/09/15 11:36:24;;;;;;;2.60;0.88;;;19.10;92.90;;;;;;4970629;28;20053;-63
2022/09/15 11:39:10;;;;;;;3.30;0.98;;;19.30;93.30;;;;;;4978942;28;20030;-63
2022/09/15 11:41:47;;;;;;;3.95;1.02;;;19.10;93.30;;;;;;4995307;28;20042;-63
2022/09/15 11:44:28;;;;;;;5.45;1.45;;;19.10;93.90;;;;;;4998130;28;20037;-64
2022/09/15 11:47:04;;;;;;;5.82;1.25;;;19.20;93.90;;;;;;4998213;28;20078;-64
2022/09/15 11:49:42;;;;;;;3.47;1.10;;;19.20;93.90;;;;;;5002962;28;20123;-64
2022/09/15 11:52:33;;;;;;;5.63;1.23;;;19.40;94.30;;;;;;4993773;28;20150;-63
2022/09/15 11:55:37;;;;;;;7.18;1.15;;;19.60;94.10;;;;;;4996330;28;20166;-64
2022/09/15 11:58:17;;;;;;;6.03;1.17;;;19.70;93.60;;;;;;4994122;28;20535;-64
2022/09/15 12:00:54;;;;;;;6.03;1.33;;;20.10;93.60;;;;;;4999412;28;20056;-65
2022/09/15 12:06:17;;;;;;;8.93;1.50;;;19.90;92.40;;;;;;5032515;23;20048;-82
2022/09/15 12:09:03;;;;;;;6.97;1.35;;;19.50;93.50;;;;;;4991834;28;20041;-81
2022/09/15 12:11:34;;;;;;;4.30;0.95;;;19.40;93.10;;;;;;4995908;28;20102;-81
2022/09/15 12:14:04;;;;;;;3.00;0.80;;;19.60;93.00;;;;;;5007983;28;20390;-82
2022/09/15 12:16:32;;;;;;;4.22;1.00;;;19.60;92.10;;;;;;4978038;28;20053;-81
2022/09/15 12:19:02;;;;;;;4.30;0.93;;;19.40;91.60;;;;;;4992899;28;20179;-82
2022/09/15 12:21:50;;;;;;;4.53;1.02;;;19.00;91.90;;;;;;5001261;28;20129;-81
2022/09/15 12:24:32;;;;;;;5.10;1.20;;;18.90;91.80;;;;;;5011589;28;20072;-82
2022/09/15 12:27:01;;;;;;;4.30;1.00;;;18.50;91.80;;;;;;4986027;28;20046;-83
2022/09/15 12:29:28;;;;;;;8.52;1.80;;;18.30;93.40;;;;;;4994634;28;20050;-82
2022/09/15 12:32:23;;;;;;;6.97;1.25;;;18.00;95.10;;;;;;5008140;28;20486;-81
2022/09/15 12:35:02;;;;;;;8.13;1.45;;;17.70;97.00;;;;;;4994291;28;20034;-81
2022/09/15 12:37:42;;;;;;;8.15;1.45;;;17.60;97.70;;;;;;5012411;28;20103;-81
2022/09/15 12:40:32;;;;;;;9.75;2.17;;;17.50;98.30;;;;;;4983618;28;20141;-80
2022/09/15 12:43:01;;;;;;;4.78;1.23;;;17.80;98.00;;;;;;5005427;28;20042;-81
2022/09/15 12:45:33;;;;;;;6.32;1.45;;;17.80;97.00;;;;;;4988468;28;20068;-79
2022/09/15 12:48:20;;;;;;;4.38;1.00;;;17.90;96.90;;;;;;4987036;28;20038;-79
2022/09/15 12:50:55;;;;;;;4.05;0.93;;;17.90;96.80;;;;;;4985168;28;20461;-79
2022/09/15 12:53:29;;;;;;;6.93;1.27;;;17.70;96.00;;;;;;4986939;28;20128;-79
2022/09/15 12:56:01;;;;;;;4.03;0.82;;;17.90;96.50;;;;;;4981959;28;20033;-79
2022/09/15 12:58:36;;;;;;;3.05;0.90;;;18.00;95.70;;;;;;4987070;28;20069;-79
2022/09/15 13:01:17;;;;;;;2.85;0.68;;;18.20;95.60;;;;;;5008013;28;20513;-79
2022/09/15 13:03:42;;;;;;;2.45;0.73;;;18.20;94.30;;;;;;4992387;28;20093;-77
2022/09/15 13:06:22;;;;;;;3.03;0.77;;;18.00;94.40;;;;;;5009218;28;20112;-79
2022/09/15 13:09:00;;;;;;;3.40;1.17;;;18.00;94.70;;;;;;4996065;28;20079;-79
2022/09/15 13:11:33;;;;;;;4.45;1.20;;;18.00;94.80;;;;;;4989679;28;20212;-78
2022/09/15 13:14:10;;;;;;;4.20;1.00;;;18.00;95.20;;;;;;5003740;28;20042;-79